Time;durP1;ratioP1;P1;durP2;ratioP2;P2;SDS_P1;SDS_P2;PMS_P1;PMS_P2;Temp;Humidity;BMP_temperature;BMP_pressure;BME280_temperature;BME280_humidity;BME280_pressure;Samples;Min_cycle;Max_cycle;Signal;HPM_P1;HPM_P2
2022/05/17 00:01:01;;;;;;;4.95;4.10;;;;;;;19.98;74.58;101090.44;4880433;29;20068;-66
2022/05/17 00:03:30;;;;;;;5.45;4.07;;;;;;;19.93;74.86;101090.59;4880809;29;20049;-66
2022/05/17 00:05:58;;;;;;;4.43;3.70;;;;;;;19.88;75.43;101086.03;4881078;29;20041;-66
2022/05/17 00:08:27;;;;;;;4.47;3.83;;;;;;;19.84;75.55;101085.88;4880833;29;20061;-66
2022/05/17 00:10:54;;;;;;;6.63;4.00;;;;;;;19.84;76.04;101079.53;4881117;29;20057;-66
2022/05/17 00:13:22;;;;;;;7.90;4.18;;;;;;;19.84;75.56;101080.31;4880181;29;20489;-66
2022/05/17 00:15:54;;;;;;;5.10;3.40;;;;;;;20.06;74.31;101088.78;4881128;29;20481;-66
2022/05/17 00:18:23;;;;;;;8.23;4.07;;;;;;;20.09;74.59;101086.16;4878797;29;20061;-66
2022/05/17 00:20:51;;;;;;;5.53;4.25;;;;;;;20.06;74.82;101075.72;4880826;29;20049;-66
2022/05/17 00:23:19;;;;;;;6.50;4.00;;;;;;;20.20;74.21;101080.22;4880511;29;20497;-67
2022/05/17 00:25:49;;;;;;;4.72;3.25;;;;;;;20.27;73.83;101084.13;4880242;29;20408;-67
2022/05/17 00:28:21;;;;;;;7.38;4.40;;;;;;;20.17;74.64;101080.88;4880786;29;20456;-66
2022/05/17 00:30:50;;;;;;;5.38;4.22;;;;;;;19.85;75.76;101081.94;4863983;29;20508;-66
2022/05/17 00:33:21;;;;;;;5.45;3.97;;;;;;;19.68;76.61;101068.13;4879820;29;20078;-66
2022/05/17 00:35:49;;;;;;;5.32;3.88;;;;;;;19.65;76.56;101066.00;4880213;29;20057;-66
2022/05/17 00:38:18;;;;;;;6.20;4.32;;;;;;;19.63;76.17;101059.97;4879823;29;20053;-66
2022/05/17 00:40:46;;;;;;;8.65;4.43;;;;;;;19.83;75.38;101061.22;4880286;29;20053;-66
2022/05/17 00:44:42;;;;;;;7.55;4.47;;;;;;;19.76;76.33;101055.38;4880576;29;20053;-66
2022/05/17 00:46:49;;;;;;;5.40;4.50;;;;;;;19.49;76.53;101063.75;4878556;29;20060;-66
2022/05/17 00:49:27;;;;;;;6.25;4.45;;;;;;;19.56;76.15;101066.84;4871069;29;20057;-66
2022/05/17 00:52:00;;;;;;;5.80;4.15;;;;;;;19.59;76.07;101068.13;4880262;29;20052;-66
2022/05/17 00:54:30;;;;;;;6.30;4.63;;;;;;;19.57;76.39;101079.59;4879531;29;20061;-66
2022/05/17 00:57:12;;;;;;;8.27;4.32;;;;;;;19.49;76.98;101068.50;4879942;29;20061;-66
2022/05/17 00:59:40;;;;;;;4.32;3.92;;;;;;;19.54;77.23;101071.06;4879551;29;20065;-66
2022/05/17 01:02:10;;;;;;;5.38;4.20;;;;;;;19.54;77.33;101069.13;4879494;29;20053;-66
2022/05/17 01:04:39;;;;;;;5.13;4.35;;;;;;;19.39;77.82;101066.84;4879276;29;20068;-66
2022/05/17 01:07:11;;;;;;;11.13;5.00;;;;;;;19.37;78.94;101063.59;4880239;29;20056;-66
2022/05/17 01:09:39;;;;;;;5.00;3.55;;;;;;;19.29;78.46;101065.25;4879328;29;20048;-66
2022/05/17 01:12:08;;;;;;;5.43;4.57;;;;;;;19.20;79.63;101062.47;4879313;29;20045;-66
2022/05/17 01:17:32;;;;;;;6.80;4.43;;;;;;;19.19;79.54;101060.84;4879354;29;20052;-67
2022/05/17 01:20:03;;;;;;;9.05;4.47;;;;;;;19.15;79.58;101062.63;4878984;29;20080;-66
2022/05/17 01:22:32;;;;;;;6.80;4.43;;;;;;;19.11;79.68;101056.13;4879453;29;20053;-66
2022/05/17 01:25:00;;;;;;;6.72;4.55;;;;;;;19.11;79.95;101053.34;4879653;29;20060;-66
2022/05/17 01:27:34;;;;;;;7.40;4.57;;;;;;;19.15;79.78;101066.22;4878906;29;20063;-66
2022/05/17 01:30:03;;;;;;;8.63;5.57;;;;;;;19.16;80.35;101069.84;4878719;29;20064;-66
2022/05/17 01:32:38;;;;;;;6.82;5.57;;;;;;;19.00;81.52;101067.50;4879644;29;20045;-66
2022/05/17 01:35:06;;;;;;;9.27;5.38;;;;;;;18.95;82.49;101062.13;4879134;29;20061;-66
2022/05/17 01:37:34;;;;;;;7.03;5.22;;;;;;;18.89;82.19;101064.25;4879147;29;20489;-66
2022/05/17 01:40:03;;;;;;;6.15;4.97;;;;;;;18.86;82.90;101064.88;4878980;29;20056;-66
2022/05/17 01:42:31;;;;;;;7.07;5.32;;;;;;;18.70;83.67;101055.41;4879204;29;20465;-66
2022/05/17 01:45:00;;;;;;;8.05;5.57;;;;;;;18.65;83.55;101062.75;4878528;29;20084;-66
2022/05/17 01:47:29;;;;;;;7.38;4.88;;;;;;;18.62;83.76;101054.28;4878455;29;20057;-66
2022/05/17 01:49:57;;;;;;;8.85;5.13;;;;;;;18.62;82.63;101060.63;4878741;29;20061;-66
2022/05/17 01:52:25;;;;;;;8.73;5.18;;;;;;;18.61;82.52;101063.69;4878814;29;20049;-66
2022/05/17 01:54:53;;;;;;;6.57;4.43;;;;;;;18.63;82.32;101061.44;4879271;29;20060;-66
2022/05/17 01:57:21;;;;;;;6.22;4.80;;;;;;;18.61;82.12;101061.75;4878227;29;20068;-66
2022/05/17 01:59:49;;;;;;;7.07;4.50;;;;;;;18.67;81.68;101062.41;4879110;29;20045;-66
2022/05/17 02:02:17;;;;;;;4.85;4.32;;;;;;;18.66;81.86;101067.16;4862485;29;20068;-66
2022/05/17 02:04:45;;;;;;;6.32;4.60;;;;;;;18.71;81.28;101066.19;4878551;29;20053;-66
2022/05/17 02:07:16;;;;;;;6.25;4.53;;;;;;;18.77;81.32;101064.09;4878276;29;20057;-66
2022/05/17 02:09:44;;;;;;;8.55;4.88;;;;;;;18.80;81.05;101061.47;4878365;29;20060;-66
2022/05/17 02:12:13;;;;;;;7.38;5.43;;;;;;;18.76;81.30;101059.66;4878311;29;20052;-67
2022/05/17 02:14:40;;;;;;;6.28;4.60;;;;;;;18.66;82.03;101063.56;4879102;29;20049;-66
2022/05/17 02:17:09;;;;;;;5.95;4.80;;;;;;;18.63;82.11;101053.13;4878705;29;20049;-66
2022/05/17 02:19:36;;;;;;;7.05;4.35;;;;;;;18.60;82.96;101054.59;4878808;29;20049;-66
2022/05/17 02:22:05;;;;;;;5.97;5.28;;;;;;;18.71;82.71;101049.53;4878380;29;20053;-66
2022/05/17 02:24:33;;;;;;;6.18;4.65;;;;;;;18.62;82.92;101055.06;4878316;29;20053;-66
2022/05/17 02:27:02;;;;;;;7.50;4.68;;;;;;;18.51;84.00;101057.34;4862584;29;20045;-66
2022/05/17 02:29:30;;;;;;;7.45;5.28;;;;;;;18.47;84.01;101050.00;4878295;29;20397;-66
2022/05/17 02:31:59;;;;;;;7.22;5.30;;;;;;;18.50;84.43;101057.66;4878747;29;20049;-66
2022/05/17 02:34:27;;;;;;;8.20;5.30;;;;;;;18.47;84.75;101059.13;4878774;29;20048;-66
2022/05/17 02:36:57;;;;;;;7.75;4.43;;;;;;;18.45;84.64;101055.88;4877732;29;20045;-66
2022/05/17 02:39:25;;;;;;;6.70;4.60;;;;;;;18.33;85.46;101050.13;4861848;29;20061;-66
2022/05/17 02:41:54;;;;;;;7.28;5.13;;;;;;;18.26;86.09;101061.66;4877356;29;20493;-66
2022/05/17 02:44:22;;;;;;;10.00;5.55;;;;;;;18.20;85.96;101060.19;4878540;29;20065;-66
2022/05/17 02:46:50;;;;;;;6.22;4.93;;;;;;;18.14;86.52;101062.28;4878595;29;20052;-66
2022/05/17 02:49:17;;;;;;;7.75;5.22;;;;;;;18.19;86.04;101059.34;4861973;29;20068;-66
2022/05/17 02:51:45;;;;;;;7.07;5.25;;;;;;;18.17;86.33;101055.28;4878516;29;20045;-66
2022/05/17 02:54:13;;;;;;;8.63;4.80;;;;;;;18.22;86.11;101055.13;4877353;29;20053;-66
2022/05/17 02:56:41;;;;;;;5.40;4.57;;;;;;;18.22;85.93;101053.19;4877476;29;20056;-66
2022/05/17 02:59:12;;;;;;;7.57;4.90;;;;;;;18.29;85.69;101051.91;4878526;29;20081;-66
2022/05/17 03:01:40;;;;;;;6.90;4.93;;;;;;;18.28;85.91;101051.06;4877678;29;20060;-66
2022/05/17 03:04:08;;;;;;;6.55;4.10;;;;;;;18.23;85.22;101049.28;4877995;29;20049;-66
2022/05/17 03:06:36;;;;;;;7.47;5.20;;;;;;;18.23;85.28;101060.34;4877581;29;20424;-66
2022/05/17 03:09:04;;;;;;;5.93;4.53;;;;;;;18.25;85.35;101063.63;4877639;29;20053;-66
2022/05/17 03:11:31;;;;;;;6.35;4.78;;;;;;;18.26;85.05;101058.91;4861406;29;20056;-66
2022/05/17 03:13:59;;;;;;;6.97;4.75;;;;;;;18.11;86.07;101060.97;4877948;29;20061;-66
2022/05/17 03:16:32;;;;;;;6.45;4.53;;;;;;;18.03;86.42;101058.13;4878292;29;20408;-66
2022/05/17 03:19:01;;;;;;;8.30;4.88;;;;;;;18.04;86.19;101065.31;4877893;29;20049;-66
2022/05/17 03:21:29;;;;;;;7.18;4.72;;;;;;;18.01;86.26;101055.69;4877235;29;20068;-66
2022/05/17 03:23:57;;;;;;;6.38;4.93;;;;;;;18.00;86.62;101052.09;4877458;29;20060;-66
2022/05/17 03:26:25;;;;;;;6.72;4.78;;;;;;;17.99;86.77;101050.47;4877115;29;20398;-66
2022/05/17 03:28:53;;;;;;;6.07;4.78;;;;;;;17.97;86.99;101058.28;4877646;29;20049;-66
2022/05/17 03:31:20;;;;;;;8.88;4.53;;;;;;;18.07;86.61;101048.06;4877551;29;20053;-66
2022/05/17 03:33:48;;;;;;;7.15;4.75;;;;;;;18.21;85.43;101054.31;4877433;29;20057;-66
2022/05/17 03:36:16;;;;;;;6.85;4.32;;;;;;;18.27;84.93;101050.28;4877883;29;20092;-66
2022/05/17 03:38:44;;;;;;;6.07;4.50;;;;;;;18.35;85.18;101050.63;4878144;29;20489;-66
2022/05/17 03:41:13;;;;;;;7.47;4.63;;;;;;;18.40;84.56;101053.25;4878011;29;20053;-66
2022/05/17 03:43:41;;;;;;;8.45;4.97;;;;;;;18.40;84.39;101053.25;4877210;29;20064;-66
2022/05/17 03:46:12;;;;;;;8.65;4.93;;;;;;;18.23;85.24;101042.94;4878103;29;20045;-66
2022/05/17 03:48:40;;;;;;;6.57;5.18;;;;;;;18.12;85.82;101034.09;4878044;29;20064;-66
2022/05/17 03:51:17;;;;;;;5.72;5.00;;;;;;;17.95;87.19;101043.13;4877428;29;20056;-66
2022/05/17 03:53:47;;;;;;;7.93;5.40;;;;;;;17.90;87.52;101046.03;4880365;29;20049;-66
2022/05/17 03:56:16;;;;;;;9.70;4.93;;;;;;;17.80;87.95;101041.59;4880488;29;20420;-66
2022/05/17 03:58:44;;;;;;;8.40;5.22;;;;;;;17.84;87.37;101040.63;4880890;29;20052;-66
2022/05/17 04:01:13;;;;;;;6.85;4.80;;;;;;;18.00;86.91;101049.31;4881361;29;20497;-66
2022/05/17 04:03:43;;;;;;;7.18;4.95;;;;;;;18.12;86.12;101047.94;4881108;29;20041;-66
2022/05/17 04:06:11;;;;;;;9.50;5.40;;;;;;;18.13;86.10;101044.03;4880530;29;20064;-66
2022/05/17 04:08:40;;;;;;;7.80;4.85;;;;;;;17.85;87.65;101041.44;4881011;29;20068;-66
2022/05/17 04:11:08;;;;;;;6.55;5.03;;;;;;;17.73;88.26;101029.00;4880764;29;20072;-66
2022/05/17 04:13:36;;;;;;;6.35;4.95;;;;;;;17.81;87.83;101032.97;4880776;29;20049;-66
2022/05/17 04:16:04;;;;;;;7.40;4.93;;;;;;;17.92;87.20;101032.66;4880246;29;20061;-66
2022/05/17 04:18:32;;;;;;;8.23;4.60;;;;;;;18.26;85.65;101037.56;4880893;29;20045;-66
2022/05/17 04:21:01;;;;;;;5.63;4.65;;;;;;;18.42;85.20;101033.53;4880251;29;20060;-66
2022/05/17 04:23:30;;;;;;;7.38;4.90;;;;;;;18.31;85.58;101028.28;4880556;29;20061;-66
2022/05/17 04:25:58;;;;;;;6.03;4.60;;;;;;;18.39;84.66;101035.00;4880371;29;20226;-66
2022/05/17 04:28:26;;;;;;;7.68;5.03;;;;;;;18.61;83.62;101036.81;4863292;29;20049;-66
2022/05/17 04:30:54;;;;;;;9.13;4.47;;;;;;;18.60;83.18;101039.91;4880083;29;20048;-66
2022/05/17 04:33:22;;;;;;;6.15;4.15;;;;;;;18.71;82.88;101035.69;4880348;29;20061;-66
2022/05/17 04:35:50;;;;;;;8.85;4.95;;;;;;;18.45;85.18;101039.25;4880190;29;20397;-66
2022/05/17 04:38:18;;;;;;;7.90;5.00;;;;;;;18.32;84.90;101031.88;4879563;29;20060;-66
2022/05/17 04:40:46;;;;;;;8.68;5.05;;;;;;;18.35;84.89;101032.03;4887135;29;20048;-66
2022/05/17 04:43:14;;;;;;;9.70;5.28;;;;;;;18.37;85.43;101034.47;4889352;29;20515;-66
2022/05/17 04:45:44;;;;;;;8.55;5.60;;;;;;;18.69;83.35;101035.19;4880017;29;20060;-66
2022/05/17 04:48:13;;;;;;;5.38;4.35;;;;;;;18.96;81.93;101043.53;4879883;29;20060;-66
2022/05/17 04:50:40;;;;;;;6.78;4.32;;;;;;;18.99;82.44;101040.94;4879711;29;20048;-66
2022/05/17 04:53:09;;;;;;;4.97;4.25;;;;;;;19.22;80.93;101046.34;4880393;29;20053;-66
2022/05/17 04:55:37;;;;;;;8.27;4.63;;;;;;;19.65;79.08;101052.94;4879371;29;20064;-69
2022/05/17 04:58:06;;;;;;;7.70;4.28;;;;;;;19.96;77.51;101048.31;4848119;29;20076;-70
2022/05/17 05:00:34;;;;;;;8.35;4.20;;;;;;;19.96;77.15;101032.47;4879092;29;20041;-69
2022/05/17 05:03:03;;;;;;;7.80;4.65;;;;;;;20.06;76.34;101036.00;4863275;29;20049;-70
2022/05/17 05:05:33;;;;;;;7.20;3.92;;;;;;;20.15;75.60;101039.56;4883486;29;20056;-69
2022/05/17 05:08:02;;;;;;;4.82;3.83;;;;;;;20.22;74.69;101028.72;4888964;29;20056;-69
2022/05/17 05:10:30;;;;;;;7.38;4.53;;;;;;;20.26;74.43;101045.53;4898859;29;20052;-69
2022/05/17 05:12:58;;;;;;;7.25;4.30;;;;;;;20.35;74.23;101048.28;4892770;29;20064;-69
2022/05/17 05:15:26;;;;;;;6.10;4.22;;;;;;;20.36;74.35;101039.63;4879794;29;20049;-70
2022/05/17 05:17:54;;;;;;;6.63;4.75;;;;;;;20.36;73.96;101042.41;4880072;29;20049;-70
2022/05/17 05:20:22;;;;;;;8.25;4.60;;;;;;;20.40;73.88;101048.09;4879933;29;20512;-70
2022/05/17 05:22:51;;;;;;;5.78;4.30;;;;;;;20.71;72.75;101043.31;4879761;29;20048;-69
2022/05/17 05:25:20;;;;;;;5.90;3.90;;;;;;;21.02;71.12;101050.47;4890061;29;20037;-69
2022/05/17 05:27:49;;;;;;;5.38;4.07;;;;;;;20.93;71.67;101042.19;4862710;29;20057;-70
2022/05/17 05:30:19;;;;;;;6.50;3.45;;;;;;;21.11;71.29;101048.41;4879752;29;20409;-71
2022/05/17 05:32:47;;;;;;;4.88;3.88;;;;;;;21.14;71.20;101049.69;4879742;29;20056;-70
2022/05/17 05:35:18;;;;;;;7.32;4.15;;;;;;;21.34;70.13;101059.19;4879772;29;20051;-71
2022/05/17 05:37:47;;;;;;;6.75;4.10;;;;;;;21.28;68.74;101060.53;4879851;29;20049;-70
2022/05/17 05:40:16;;;;;;;4.50;3.55;;;;;;;21.31;68.83;101052.31;4879392;29;20045;-71
2022/05/17 05:42:44;;;;;;;5.68;3.88;;;;;;;21.41;67.13;101059.44;4879600;29;20085;-71
2022/05/17 05:45:13;;;;;;;6.57;4.22;;;;;;;21.39;66.97;101052.56;4879467;29;20053;-68
2022/05/17 05:47:40;;;;;;;4.35;2.92;;;;;;;21.39;66.60;101055.34;4879597;29;20053;-68
2022/05/17 05:50:09;;;;;;;5.28;3.20;;;;;;;21.50;66.64;101056.56;4879435;29;20061;-68
2022/05/17 05:52:40;;;;;;;5.35;3.50;;;;;;;21.51;65.94;101058.19;4879404;29;20064;-68
2022/05/17 05:55:15;;;;;;;5.72;3.90;;;;;;;21.56;65.19;101055.19;4878026;29;20056;-70
2022/05/17 05:57:47;;;;;;;4.93;3.47;;;;;;;21.70;65.21;101054.09;4879309;29;20064;-70
2022/05/17 06:00:18;;;;;;;6.78;3.90;;;;;;;21.78;63.25;101055.13;4862675;29;20052;-70
2022/05/17 06:02:46;;;;;;;6.68;3.42;;;;;;;21.79;63.27;101065.16;4878829;29;20060;-70
2022/05/17 06:05:16;;;;;;;10.20;4.30;;;;;;;21.85;64.15;101058.19;4862061;29;20497;-70
2022/05/17 06:07:45;;;;;;;7.82;3.50;;;;;;;21.97;63.69;101058.22;4879003;29;20057;-70
2022/05/17 06:10:14;;;;;;;7.63;4.20;;;;;;;21.90;63.69;101052.41;4878839;29;20049;-70
2022/05/17 06:12:43;;;;;;;8.90;3.53;;;;;;;22.01;63.86;101053.53;4878859;29;20069;-70
2022/05/17 06:15:14;;;;;;;8.27;4.22;;;;;;;22.12;62.72;101041.94;4878154;29;20052;-70
2022/05/17 06:17:49;;;;;;;5.45;3.72;;;;;;;22.40;62.86;101057.97;4878918;29;20491;-70
2022/05/17 06:20:17;;;;;;;4.97;3.38;;;;;;;22.43;62.54;101048.88;4878783;29;20049;-71
2022/05/17 06:22:46;;;;;;;5.75;4.10;;;;;;;22.38;63.74;101055.53;4878728;29;20060;-70
2022/05/17 06:25:15;;;;;;;10.35;4.47;;;;;;;22.25;64.45;101045.56;4861986;29;20041;-70
2022/05/17 06:27:44;;;;;;;8.40;3.63;;;;;;;22.27;65.31;101051.59;4878574;29;20060;-71
2022/05/17 06:30:12;;;;;;;6.90;3.40;;;;;;;22.44;63.32;101052.50;4878752;29;20041;-70
2022/05/17 06:32:41;;;;;;;7.47;3.38;;;;;;;22.49;63.41;101049.47;4878611;29;20068;-70
2022/05/17 06:35:10;;;;;;;3.42;2.95;;;;;;;22.55;62.86;101054.47;4878618;29;20056;-70
2022/05/17 06:37:38;;;;;;;9.00;3.47;;;;;;;22.63;63.16;101035.19;4878533;29;20493;-70
2022/05/17 06:40:07;;;;;;;5.70;3.42;;;;;;;22.77;62.57;101038.41;4878477;29;20053;-70
2022/05/17 06:42:36;;;;;;;4.22;2.58;;;;;;;22.89;62.60;101022.81;4878632;29;20053;-70
2022/05/17 06:45:07;;;;;;;6.15;2.38;;;;;;;23.01;61.83;101030.34;4861885;29;20052;-70
2022/05/17 06:47:35;;;;;;;2.33;1.95;;;;;;;23.22;60.82;101036.50;4878566;29;20049;-70
2022/05/17 06:50:06;;;;;;;3.65;2.15;;;;;;;23.35;59.72;101042.06;4878459;29;20049;-70
2022/05/17 06:52:36;;;;;;;4.75;1.95;;;;;;;23.52;58.51;101043.72;4878606;29;20049;-69
2022/05/17 06:55:06;;;;;;;3.08;2.00;;;;;;;23.60;58.14;101051.13;4878247;29;20045;-69
2022/05/17 06:57:36;;;;;;;2.03;1.67;;;;;;;23.62;56.07;101048.75;4878493;29;20068;-69
2022/05/17 07:00:05;;;;;;;2.97;1.90;;;;;;;23.71;55.08;101045.00;4878349;29;20060;-69
2022/05/17 07:02:35;;;;;;;1.98;1.88;;;;;;;23.72;55.36;101024.28;4878347;29;20064;-69
2022/05/17 07:05:03;;;;;;;2.13;1.58;;;;;;;23.78;55.85;101031.22;4878241;29;20046;-69
2022/05/17 07:07:37;;;;;;;3.83;1.67;;;;;;;23.93;55.41;101023.19;4878308;29;20045;-69
2022/05/17 07:13:12;;;;;;;2.25;1.40;;;;;;;24.23;53.83;101028.31;4878220;29;20045;-69
2022/05/17 07:15:48;;;;;;;1.60;1.48;;;;;;;24.35;53.68;101035.78;4878403;29;20056;-69
2022/05/17 07:18:19;;;;;;;3.38;1.83;;;;;;;24.33;52.85;101024.97;4878199;29;20485;-69
2022/05/17 07:20:48;;;;;;;2.05;1.38;;;;;;;24.39;52.68;101029.09;4861710;29;20392;-70
2022/05/17 07:23:18;;;;;;;3.40;1.27;;;;;;;24.43;51.03;101027.19;4878091;29;20056;-69
2022/05/17 07:25:46;;;;;;;1.50;1.20;;;;;;;24.56;49.11;101033.50;4878006;29;20064;-70
2022/05/17 07:28:17;;;;;;;1.75;1.40;;;;;;;24.69;50.63;101033.38;4881105;29;20049;-70
2022/05/17 07:30:46;;;;;;;2.53;1.40;;;;;;;24.78;49.74;101033.16;4850306;29;20053;-70
2022/05/17 07:33:14;;;;;;;4.53;1.35;;;;;;;24.80;49.02;101027.97;4881644;29;20400;-70
2022/05/17 07:35:45;;;;;;;1.30;1.20;;;;;;;24.79;50.23;101029.16;4881201;29;20052;-70
2022/05/17 07:38:16;;;;;;;1.40;1.27;;;;;;;24.83;49.81;101030.88;4881239;29;20409;-70
2022/05/17 07:40:44;;;;;;;3.08;1.60;;;;;;;24.85;48.27;101026.91;4881546;29;20053;-70
2022/05/17 07:43:13;;;;;;;1.65;1.55;;;;;;;24.95;47.90;101031.91;4881498;29;20041;-70
2022/05/17 07:45:42;;;;;;;1.60;1.27;;;;;;;25.11;46.41;101034.63;4880947;29;20073;-70
2022/05/17 07:48:10;;;;;;;2.42;1.20;;;;;;;25.10;47.02;101033.03;4880307;29;20705;-70
2022/05/17 07:50:39;;;;;;;1.73;1.63;;;;;;;25.07;47.01;101028.19;4881570;29;20386;-70
2022/05/17 07:53:09;;;;;;;1.67;1.38;;;;;;;25.07;47.60;101031.78;4881547;29;20485;-70
2022/05/17 07:55:39;;;;;;;3.17;1.60;;;;;;;25.18;48.40;101039.56;4881283;29;20064;-70
2022/05/17 07:58:08;;;;;;;1.45;1.40;;;;;;;25.27;48.41;101020.53;4881523;29;20072;-70
2022/05/17 08:00:38;;;;;;;1.55;1.45;;;;;;;25.47;48.87;101023.31;4881296;29;20052;-69
2022/05/17 08:03:08;;;;;;;1.92;1.60;;;;;;;25.44;48.28;101018.44;4881226;29;20060;-70
2022/05/17 08:05:37;;;;;;;2.45;1.73;;;;;;;25.59;48.54;101022.34;4881008;29;20053;-70
2022/05/17 08:08:05;;;;;;;1.80;1.58;;;;;;;25.67;47.51;101024.09;4881097;29;20124;-69
2022/05/17 08:10:33;;;;;;;2.72;2.05;;;;;;;25.79;47.68;101025.09;4881019;29;20401;-69
2022/05/17 08:13:02;;;;;;;1.65;1.42;;;;;;;25.77;46.96;101034.69;4881068;29;20049;-69
2022/05/17 08:15:30;;;;;;;2.75;1.98;;;;;;;25.62;47.02;101019.59;4879866;29;20041;-70
2022/05/17 08:18:01;;;;;;;2.55;1.40;;;;;;;25.79;46.24;101025.09;4880918;29;20049;-69
2022/05/17 08:20:30;;;;;;;4.13;1.83;;;;;;;25.93;44.57;101022.53;4864422;29;20049;-70
2022/05/17 08:22:59;;;;;;;2.15;1.40;;;;;;;25.97;44.52;101028.19;4880856;29;20049;-70
2022/05/17 08:28:17;;;;;;;1.73;1.50;;;;;;;25.99;44.74;101020.19;4898634;29;20408;-69
2022/05/17 08:30:47;;;;;;;3.10;1.70;;;;;;;25.88;44.16;101009.66;4899210;29;20051;-70
2022/05/17 08:33:18;;;;;;;4.13;1.40;;;;;;;25.97;44.38;101015.00;4899127;29;20053;-70
2022/05/17 08:36:01;;;;;;;1.98;1.35;;;;;;;26.13;43.56;101017.63;4899370;29;20053;-69
2022/05/17 08:38:38;;;;;;;2.35;1.42;;;;;;;26.26;43.19;101023.88;4897590;29;20048;-70
2022/05/17 08:41:37;;;;;;;1.67;1.58;;;;;;;26.10;43.58;101014.78;4882255;29;20049;-69
2022/05/17 08:44:12;;;;;;;4.13;1.83;;;;;;;26.30;43.07;101023.94;4881403;29;20053;-69
2022/05/17 08:46:53;;;;;;;1.65;1.55;;;;;;;26.30;42.95;101018.31;4899176;29;20050;-69
2022/05/17 08:49:53;;;;;;;1.25;1.20;;;;;;;26.36;43.36;101027.22;4898373;29;20057;-69
2022/05/17 08:52:25;;;;;;;1.30;1.20;;;;;;;26.45;43.63;101024.13;4898806;29;20399;-69
2022/05/17 08:55:17;;;;;;;1.30;1.20;;;;;;;26.52;41.61;101025.03;4898820;29;20068;-69
2022/05/17 08:57:51;;;;;;;1.90;1.58;;;;;;;26.66;41.38;101015.19;4899171;29;20068;-69
2022/05/17 09:00:27;;;;;;;1.10;1.10;;;;;;;26.76;40.97;101016.50;4898947;29;20049;-69
2022/05/17 09:03:31;;;;;;;1.30;1.20;;;;;;;26.80;40.25;101009.78;4899023;29;20052;-69
2022/05/17 09:06:29;;;;;;;1.40;1.30;;;;;;;27.00;39.55;101015.25;4898841;29;20065;-70
2022/05/17 09:09:05;;;;;;;1.30;1.20;;;;;;;26.94;39.87;101017.56;4898823;29;20045;-69
2022/05/17 09:11:44;;;;;;;2.05;1.38;;;;;;;26.92;40.11;101010.72;4898949;29;20060;-69
2022/05/17 09:14:22;;;;;;;2.90;1.17;;;;;;;26.92;40.71;101016.34;4898750;29;20494;-69
2022/05/17 09:17:05;;;;;;;3.40;0.98;;;;;;;26.98;41.62;101012.03;4898646;29;20052;-69
2022/05/17 09:19:34;;;;;;;1.98;1.20;;;;;;;27.15;40.44;101009.78;4898630;29;20052;-69
2022/05/17 09:22:03;;;;;;;1.02;1.02;;;;;;;27.22;39.40;101007.84;4898466;29;20052;-69
2022/05/17 09:24:38;;;;;;;1.30;1.00;;;;;;;27.25;40.73;101014.72;4898292;29;20433;-69
2022/05/17 09:27:10;;;;;;;1.33;1.20;;;;;;;27.28;39.75;101001.91;4898456;29;20045;-70
2022/05/17 09:29:42;;;;;;;1.30;1.20;;;;;;;27.48;39.86;101003.28;4898317;29;20521;-69
2022/05/17 09:32:12;;;;;;;1.83;1.40;;;;;;;27.70;39.93;100999.91;4898308;29;20052;-69
2022/05/17 09:34:45;;;;;;;1.10;1.00;;;;;;;27.76;39.34;101003.97;4881782;29;20049;-69
2022/05/17 09:37:17;;;;;;;1.40;1.30;;;;;;;27.78;38.92;101004.38;4898284;29;20040;-69
2022/05/17 09:39:55;;;;;;;2.20;1.17;;;;;;;27.83;40.42;101004.03;4898254;29;20049;-69
2022/05/17 09:42:32;;;;;;;1.40;1.30;;;;;;;27.83;39.83;101001.22;4898233;29;20045;-69
2022/05/17 09:45:10;;;;;;;3.40;1.60;;;;;;;27.83;38.96;100997.59;4897998;29;20060;-69
2022/05/17 09:48:03;;;;;;;1.38;1.02;;;;;;;27.86;39.12;100992.00;4896764;29;20056;-69
2022/05/17 09:53:44;;;;;;;2.85;1.38;;;;;;;27.84;39.52;101000.03;4897972;29;20500;-69
2022/05/17 09:56:13;;;;;;;1.65;1.48;;;;;;;27.81;38.58;100995.16;4879263;29;20071;-69
2022/05/17 09:58:45;;;;;;;2.40;1.40;;;;;;;28.06;38.94;101003.00;4879209;29;20382;-69
2022/05/17 10:01:25;;;;;;;1.83;1.55;;;;;;;28.21;38.93;100997.47;4879175;29;20052;-69
2022/05/17 10:04:10;;;;;;;1.88;1.30;;;;;;;28.14;39.33;101009.47;4878981;29;20060;-69
2022/05/17 10:06:43;;;;;;;3.85;1.60;;;;;;;28.07;38.84;100996.16;4879289;29;20076;-69
2022/05/17 10:09:28;;;;;;;2.17;1.70;;;;;;;27.88;39.65;100995.25;4879088;29;20393;-69
2022/05/17 10:12:04;;;;;;;1.52;1.38;;;;;;;28.06;38.99;101005.81;4879012;29;20049;-70
2022/05/17 10:14:46;;;;;;;2.05;1.80;;;;;;;28.05;39.22;100998.56;4878853;29;20053;-70
2022/05/17 10:17:27;;;;;;;3.78;1.70;;;;;;;28.13;39.54;100988.97;4877792;29;20397;-70
2022/05/17 10:20:01;;;;;;;1.95;1.80;;;;;;;28.26;39.20;100986.66;4878740;29;20396;-70
2022/05/17 10:22:51;;;;;;;4.22;1.77;;;;;;;28.27;39.59;100988.28;4873211;29;20051;-69
2022/05/17 10:25:53;;;;;;;2.85;2.05;;;;;;;28.29;39.72;100985.06;4863090;29;20057;-69
2022/05/17 10:28:40;;;;;;;1.85;1.60;;;;;;;28.61;37.99;100983.63;4866414;29;20069;-69
2022/05/17 10:31:18;;;;;;;1.73;1.60;;;;;;;28.93;36.82;100985.78;4860135;29;20046;-69
2022/05/17 10:33:58;;;;;;;1.77;1.67;;;;;;;29.07;37.16;100983.00;4870271;29;20512;-69
2022/05/17 10:36:43;;;;;;;1.42;1.33;;;;;;;29.04;37.69;100978.19;4878709;29;20049;-69
2022/05/17 10:39:25;;;;;;;1.58;1.48;;;;;;;29.06;37.07;100970.13;4878763;29;20393;-69
2022/05/17 10:41:57;;;;;;;1.73;1.55;;;;;;;28.92;36.83;100962.44;4876857;29;20053;-69
2022/05/17 10:44:37;;;;;;;1.80;1.70;;;;;;;28.87;36.39;100962.03;4875978;29;20060;-69
2022/05/17 10:47:21;;;;;;;2.42;1.40;;;;;;;28.87;35.98;100960.00;4866886;29;20057;-70
2022/05/17 10:50:08;;;;;;;2.70;1.38;;;;;;;29.19;36.90;100959.28;4875182;29;20053;-70
2022/05/17 10:52:51;;;;;;;3.05;1.27;;;;;;;29.56;34.35;100954.50;4878377;29;20049;-70
2022/05/17 10:55:40;;;;;;;2.27;1.70;;;;;;;29.70;35.64;100956.50;4890651;29;20053;-70
2022/05/17 10:58:48;;;;;;;1.58;1.48;;;;;;;29.67;34.86;100954.50;4897088;29;20044;-70
2022/05/17 11:01:24;;;;;;;1.67;1.40;;;;;;;29.47;33.62;100937.94;4897041;29;20426;-70
2022/05/17 11:04:36;;;;;;;2.80;1.30;;;;;;;29.67;34.03;100937.59;4900875;29;20488;-69
2022/05/17 11:07:26;;;;;;;1.60;1.50;;;;;;;29.59;33.56;100931.16;4858452;29;20064;-69
2022/05/17 11:10:22;;;;;;;1.25;1.15;;;;;;;29.64;35.35;100935.56;4883235;29;20404;-69
2022/05/17 11:13:00;;;;;;;1.65;1.55;;;;;;;29.68;34.48;100927.91;4900843;29;20057;-69
2022/05/17 11:15:44;;;;;;;1.35;1.02;;;;;;;29.78;35.06;100927.06;4885459;29;20079;-70
2022/05/17 11:18:33;;;;;;;2.75;1.52;;;;;;;29.89;33.87;100929.91;4900775;29;20049;-69
2022/05/17 11:21:07;;;;;;;1.35;1.20;;;;;;;29.97;32.97;100935.50;4900800;29;20057;-69
2022/05/17 11:23:50;;;;;;;1.42;0.75;;;;;;;29.92;31.22;100931.09;4900538;29;20057;-70
2022/05/17 11:26:42;;;;;;;0.80;0.80;;;;;;;30.00;31.72;100929.06;4900629;29;20063;-70
2022/05/17 11:29:22;;;;;;;0.90;0.90;;;;;;;30.10;31.46;100933.09;4900497;29;20052;-70
2022/05/17 11:31:49;;;;;;;1.15;1.05;;;;;;;30.04;29.92;100921.38;4900569;29;20060;-70
2022/05/17 11:34:28;;;;;;;1.05;0.80;;;;;;;30.04;29.59;100916.56;4900373;29;20048;-69
2022/05/17 11:36:58;;;;;;;1.75;0.88;;;;;;;30.36;31.15;100914.88;4900519;29;20052;-70
2022/05/17 11:39:34;;;;;;;1.15;0.80;;;;;;;30.53;30.85;100912.34;4900321;29;20056;-70
2022/05/17 11:42:09;;;;;;;3.33;1.08;;;;;;;30.55;31.11;100907.91;4883001;29;20056;-70
2022/05/17 11:44:49;;;;;;;1.20;1.10;;;;;;;30.69;30.62;100909.09;4900126;29;20052;-70
2022/05/17 11:47:45;;;;;;;2.45;1.33;;;;;;;30.60;30.19;100908.69;4898972;29;20052;-70
2022/05/17 11:50:18;;;;;;;2.53;1.20;;;;;;;30.77;32.45;100899.34;4900177;29;20049;-70
2022/05/17 11:52:54;;;;;;;2.50;1.40;;;;;;;30.74;33.37;100905.03;4883493;29;20068;-70
2022/05/17 11:55:28;;;;;;;1.23;1.13;;;;;;;30.68;31.46;100894.16;4900055;29;20060;-69
2022/05/17 11:57:59;;;;;;;2.10;1.50;;;;;;;30.95;31.93;100890.78;4883297;29;20061;-69
2022/05/17 12:00:27;;;;;;;1.80;1.67;;;;;;;31.10;32.11;100891.47;4899947;29;20052;-70